createdAt,value
2023-04-16T00:02:17.282Z,14.73
2023-04-16T00:12:26.026Z,13.61
2023-04-16T00:22:34.744Z,13.87
2023-04-16T00:32:43.429Z,11.62
2023-04-16T00:42:51.948Z,13.62
2023-04-16T00:53:00.535Z,15.4
2023-04-16T01:03:09.321Z,15.02
2023-04-16T01:13:17.822Z,13.16
2023-04-16T01:23:26.374Z,14.6
2023-04-16T01:33:34.978Z,12.77
2023-04-16T01:43:43.240Z,11.63
2023-04-16T01:53:51.971Z,13.74
2023-04-16T02:04:00.790Z,11.84
2023-04-16T02:14:09.438Z,15.09
2023-04-16T02:24:18.267Z,11.68
2023-04-16T02:34:26.899Z,12.19
2023-04-16T02:44:35.603Z,13.16
2023-04-16T02:54:44.317Z,13.08
2023-04-16T03:04:53.011Z,10.87
2023-04-16T03:15:02.937Z,9.04
2023-04-16T03:25:11.579Z,9.81
2023-04-16T03:35:20.211Z,9.81
2023-04-16T03:45:28.936Z,7.95
2023-04-16T03:55:37.751Z,7.62
2023-04-16T04:05:46.466Z,6.27
2023-04-16T04:15:55.168Z,6
2023-04-16T04:26:03.940Z,3.64
2023-04-16T04:36:12.639Z,3.92
2023-04-16T04:46:21.358Z,5.21
2023-04-16T04:56:30.038Z,3.56
2023-04-16T05:06:38.747Z,5.83
2023-04-16T05:16:47.522Z,6.33
2023-04-16T05:26:56.130Z,4.23
2023-04-16T05:37:04.906Z,3.73
2023-04-16T05:47:13.550Z,4.79
2023-04-16T05:57:22.184Z,5.28
2023-04-16T06:07:30.884Z,3.87
2023-04-16T06:17:39.625Z,5.08
2023-04-16T06:27:48.259Z,4.7
2023-04-16T06:37:56.971Z,3.33
2023-04-16T06:48:05.761Z,4.17
2023-04-16T06:58:14.470Z,9.53
2023-04-16T07:08:23.133Z,6.19
2023-04-16T07:18:31.930Z,3.87
2023-04-16T07:28:40.702Z,3.93
2023-04-16T07:38:49.485Z,2.48
2023-04-16T07:48:58.375Z,4.59
2023-04-16T07:59:19.018Z,4.65
2023-04-16T08:09:14.983Z,5.53
2023-04-16T08:19:23.774Z,4.59
2023-04-16T08:29:32.677Z,4.03
2023-04-16T08:39:41.732Z,3.65
2023-04-16T08:49:50.876Z,2.8
2023-04-16T08:59:59.386Z,3.13
2023-04-16T09:10:09.555Z,4.01
2023-04-16T09:20:08.389Z,3.66
2023-04-16T09:30:17.266Z,3.3
2023-04-16T09:40:26.064Z,2.39
2023-04-16T09:50:35.297Z,2.43
2023-04-16T10:00:35.224Z,2.68
2023-04-16T10:10:43.030Z,2.42
2023-04-16T10:20:52.198Z,3.99
2023-04-16T10:31:03.297Z,6.34
2023-04-16T10:41:02.739Z,4.27
2023-04-16T10:51:11.473Z,8.42
2023-04-16T11:01:20.299Z,4.1
2023-04-16T11:11:30.197Z,4.56
2023-04-16T11:21:38.986Z,4.71
2023-04-16T11:31:47.824Z,4.68
2023-04-16T11:41:56.767Z,5.59
2023-04-16T11:52:05.527Z,6.38
2023-04-16T12:02:14.302Z,3.86
2023-04-16T12:12:22.982Z,6.06
2023-04-16T12:22:31.914Z,8.01
2023-04-16T12:32:40.474Z,6.27
2023-04-16T12:42:49.333Z,3.67
2023-04-16T12:52:58.233Z,3.92
2023-04-16T13:03:07.272Z,4
2023-04-16T13:13:16.155Z,5.18
2023-04-16T13:23:24.969Z,5.66
2023-04-16T13:33:30.886Z,3.82
2023-04-16T13:43:31.991Z,5.5
2023-04-16T13:53:31.865Z,3.13
2023-04-16T14:03:32.782Z,3.28
2023-04-16T14:13:44.293Z,3.67
2023-04-16T14:23:46.742Z,4.01
2023-04-16T14:33:55.786Z,3.04
2023-04-16T14:44:07.164Z,2.5
2023-04-16T14:54:08.081Z,4.82
2023-04-16T15:04:17.063Z,3.76
2023-04-16T15:14:25.911Z,4.08
2023-04-16T15:24:34.860Z,2.73
2023-04-16T15:34:44.991Z,5.52
2023-04-16T15:44:43.820Z,8.17
2023-04-16T15:54:52.824Z,5.15
2023-04-16T16:05:01.716Z,3.05
2023-04-16T16:15:10.560Z,2.09
2023-04-16T16:25:19.752Z,3.03
2023-04-16T16:35:29.460Z,4.47
2023-04-16T16:45:43.710Z,3.72
2023-04-16T16:55:46.360Z,3.88
2023-04-16T17:05:51.886Z,3.05
2023-04-16T17:15:52.289Z,3.32
2023-04-16T17:25:59.024Z,3.14
2023-04-16T17:35:59.899Z,3.59
2023-04-16T17:46:02.349Z,4.9
2023-04-16T17:56:15.374Z,3.26
2023-04-16T18:06:10.256Z,3.98
2023-04-16T18:16:12.188Z,3.65
2023-04-16T18:26:22.238Z,4.59
2023-04-16T18:36:28.513Z,6.91
2023-04-16T18:46:37.329Z,6.44
2023-04-16T18:56:46.330Z,7.12
2023-04-16T19:06:54.974Z,6.62
2023-04-16T19:17:04.790Z,6.59
2023-04-16T19:27:20.313Z,9.6
2023-04-16T19:37:20.396Z,8.34
2023-04-16T19:47:29.012Z,8.35
2023-04-16T19:57:37.672Z,8.89
2023-04-16T20:07:46.199Z,10.63
2023-04-16T20:17:54.422Z,10.14
2023-04-16T20:28:04.275Z,7.62
2023-04-16T20:38:14.485Z,6.78
2023-04-16T20:48:14.257Z,6.48
2023-04-16T20:58:22.459Z,7.17
2023-04-16T21:08:31.430Z,8.17
2023-04-16T21:18:40.200Z,9.96
2023-04-16T21:28:50.205Z,8.26
2023-04-16T21:38:58.453Z,7.3
2023-04-16T21:49:07.248Z,7.37
2023-04-16T21:59:15.787Z,7.46
2023-04-16T22:09:24.469Z,8.51
2023-04-16T22:19:33.162Z,7.91
2023-04-16T22:29:41.834Z,5.3
2023-04-16T22:39:50.497Z,6.29
2023-04-16T22:49:59.228Z,10.44
2023-04-16T23:00:07.937Z,7.86
2023-04-16T23:10:16.598Z,7.66
2023-04-16T23:20:25.585Z,10.15
2023-04-16T23:30:34.244Z,7.23
2023-04-16T23:40:42.887Z,8.36
2023-04-16T23:50:51.625Z,7.21
